Time;durP1;ratioP1;P1;durP2;ratioP2;P2;SDS_P1;SDS_P2;PMS_P1;PMS_P2;Temp;Humidity;BMP_temperature;BMP_pressure;BME280_temperature;BME280_humidity;BME280_pressure;Samples;Min_cycle;Max_cycle;Signal;HPM_P1;HPM_P2
2022/01/31 00:02:07;;;;;;;8.57;3.25;;;;;;;-0.07;90.16;90639.97;5072245;28;20047;-67
2022/01/31 00:04:33;;;;;;;10.98;2.88;;;;;;;-0.09;90.69;90658.53;5072263;28;20037;-67
2022/01/31 00:06:58;;;;;;;14.35;3.13;;;;;;;-0.11;91.79;90657.22;5072234;28;20116;-67
2022/01/31 00:09:25;;;;;;;9.43;2.83;;;;;;;-0.09;87.99;90661.16;5072147;28;20127;-67
2022/01/31 00:12:01;;;;;;;8.23;3.00;;;;;;;-0.11;86.34;90663.22;5072005;28;20111;-67
2022/01/31 00:14:38;;;;;;;10.93;3.00;;;;;;;-0.16;88.27;90657.16;5072007;28;20120;-68
2022/01/31 00:17:05;;;;;;;12.85;2.50;;;;;;;-0.09;87.53;90660.34;5072299;28;20413;-68
2022/01/31 00:19:31;;;;;;;15.48;3.25;;;;;;;-0.13;89.97;90661.91;5071890;28;20029;-67
2022/01/31 00:21:58;;;;;;;15.48;3.30;;;;;;;-0.14;89.64;90655.09;5071821;28;20054;-67
2022/01/31 00:24:24;;;;;;;7.53;2.83;;;;;;;-0.17;91.30;90658.19;5071908;28;20029;-67
2022/01/31 00:26:50;;;;;;;16.58;3.10;;;;;;;-0.20;91.01;90661.31;5070512;28;20037;-67
2022/01/31 00:29:17;;;;;;;15.77;3.15;;;;;;;-0.20;90.76;90656.09;5071732;28;20101;-67
2022/01/31 00:31:42;;;;;;;17.55;2.95;;;;;;;-0.25;90.15;90669.91;5071671;28;20048;-67
2022/01/31 00:34:08;;;;;;;14.15;3.47;;;;;;;-0.28;90.55;90656.56;5071679;28;20082;-67
2022/01/31 00:36:33;;;;;;;25.52;3.72;;;;;;;-0.30;92.30;90672.50;5071610;28;20490;-67
2022/01/31 00:38:59;;;;;;;12.02;2.90;;;;;;;-0.31;93.18;90669.09;5070780;28;20048;-67
2022/01/31 00:41:24;;;;;;;15.43;3.45;;;;;;;-0.25;92.49;90667.31;5071521;28;20028;-67
2022/01/31 00:44:02;;;;;;;10.55;3.15;;;;;;;-0.29;92.64;90662.84;5071472;28;20032;-67
2022/01/31 00:46:40;;;;;;;11.07;3.25;;;;;;;-0.28;93.62;90667.03;5071477;28;20036;-67
2022/01/31 00:49:12;;;;;;;5.60;2.47;;;;;;;-0.43;95.56;90652.78;5071559;28;20025;-67
2022/01/31 00:51:37;;;;;;;6.05;2.90;;;;;;;-0.34;96.04;90666.19;5071410;28;20441;-67
2022/01/31 00:54:02;;;;;;;13.32;3.30;;;;;;;-0.37;95.95;90659.63;5071402;28;20028;-68
2022/01/31 00:56:28;;;;;;;12.90;3.20;;;;;;;-0.26;94.21;90668.34;5071271;28;20021;-67
2022/01/31 00:58:53;;;;;;;17.63;3.92;;;;;;;-0.21;93.48;90657.91;5071325;28;20814;-68
2022/01/31 01:01:19;;;;;;;12.65;3.22;;;;;;;-0.16;90.30;90654.53;5071208;28;20028;-67
2022/01/31 01:03:44;;;;;;;11.82;3.35;;;;;;;-0.13;91.82;90659.28;5071587;28;20032;-67
2022/01/31 01:06:11;;;;;;;14.75;3.15;;;;;;;-0.04;89.25;90657.78;5071379;28;20546;-67
2022/01/31 01:08:38;;;;;;;9.95;3.17;;;;;;;-0.06;89.34;90659.84;5071291;28;20036;-68
2022/01/31 01:11:03;;;;;;;14.48;3.03;;;;;;;-0.10;91.06;90661.41;5071156;28;20021;-68
2022/01/31 01:13:29;;;;;;;5.63;2.28;;;;;;;-0.17;91.40;90666.03;5071162;28;20031;-68
2022/01/31 01:15:54;;;;;;;7.03;2.88;;;;;;;-0.19;92.87;90663.69;5071039;28;20060;-68
2022/01/31 01:18:20;;;;;;;12.55;2.65;;;;;;;-0.21;92.32;90659.75;5071121;28;20032;-68
2022/01/31 01:20:45;;;;;;;17.10;3.58;;;;;;;-0.22;89.96;90645.09;5070902;28;20024;-68
2022/01/31 01:23:11;;;;;;;8.25;2.60;;;;;;;-0.16;89.31;90649.31;5069675;28;20028;-67
2022/01/31 01:25:36;;;;;;;12.65;3.95;;;;;;;-0.28;91.99;90659.19;5070990;28;20426;-68
2022/01/31 01:28:02;;;;;;;14.65;4.00;;;;;;;-0.37;97.04;90662.25;5071076;28;20056;-67
2022/01/31 01:30:28;;;;;;;6.10;2.95;;;;;;;-0.53;100.00;90663.16;5070837;28;20024;-68
2022/01/31 01:35:22;;;;;;;14.77;3.70;;;;;;;-0.88;100.00;90660.22;5070851;28;20029;-67
2022/01/31 01:37:48;;;;;;;13.68;3.55;;;;;;;-0.96;100.00;90653.59;5070938;28;20111;-67
2022/01/31 01:40:15;;;;;;;16.52;4.30;;;;;;;-1.13;100.00;90651.09;5073695;28;20055;-69
2022/01/31 01:42:41;;;;;;;12.32;3.92;;;;;;;-1.15;100.00;90653.16;5089266;28;20056;-67
2022/01/31 01:45:07;;;;;;;14.35;4.05;;;;;;;-1.15;100.00;90649.75;5078303;28;20032;-68
2022/01/31 01:47:33;;;;;;;14.63;3.67;;;;;;;-1.12;100.00;90651.88;5070959;28;20039;-68
2022/01/31 01:49:58;;;;;;;10.40;3.35;;;;;;;-1.10;100.00;90644.59;5072325;28;20067;-68
2022/01/31 01:52:24;;;;;;;6.80;2.90;;;;;;;-1.08;100.00;90650.38;5074903;28;20045;-67
2022/01/31 01:54:50;;;;;;;16.63;3.50;;;;;;;-0.96;100.00;90661.44;5074752;28;20496;-67
2022/01/31 01:57:22;;;;;;;9.00;2.95;;;;;;;-0.84;100.00;90653.47;5074772;28;20478;-67
2022/01/31 01:59:54;;;;;;;8.73;3.03;;;;;;;-0.79;100.00;90646.47;5073393;28;20032;-67
2022/01/31 02:02:19;;;;;;;5.70;2.38;;;;;;;-0.78;100.00;90644.66;5074533;28;20028;-67
2022/01/31 02:04:45;;;;;;;12.88;2.63;;;;;;;-0.75;100.00;90644.16;5074588;28;20091;-67
2022/01/31 02:07:12;;;;;;;10.98;3.35;;;;;;;-0.76;100.00;90637.38;5074478;28;20025;-67
2022/01/31 02:09:45;;;;;;;13.85;3.33;;;;;;;-0.79;100.00;90636.03;5074487;28;20029;-67
2022/01/31 02:12:12;;;;;;;10.57;3.75;;;;;;;-0.75;100.00;90649.38;5074328;28;20020;-67
2022/01/31 02:14:38;;;;;;;14.90;3.25;;;;;;;-0.77;100.00;90641.00;5074324;28;20051;-67
2022/01/31 02:17:04;;;;;;;8.27;3.92;;;;;;;-0.72;100.00;90646.28;5074364;28;20486;-68
2022/01/31 02:19:29;;;;;;;5.88;2.47;;;;;;;-0.80;100.00;90637.03;5074368;28;20552;-67
2022/01/31 02:21:55;;;;;;;5.70;3.20;;;;;;;-0.92;100.00;90632.00;5074250;28;20029;-68
2022/01/31 02:24:21;;;;;;;8.43;2.75;;;;;;;-0.91;100.00;90641.41;5072935;28;20028;-67
2022/01/31 02:26:47;;;;;;;9.15;2.78;;;;;;;-0.89;100.00;90646.38;5074171;28;20029;-67
2022/01/31 02:29:12;;;;;;;10.57;3.13;;;;;;;-0.84;100.00;90649.03;5074156;28;20387;-68
2022/01/31 02:31:48;;;;;;;7.50;2.60;;;;;;;-0.78;100.00;90647.28;5072483;28;20055;-67
2022/01/31 02:34:18;;;;;;;10.90;2.80;;;;;;;-0.79;100.00;90643.06;5074043;28;20041;-67
2022/01/31 02:36:44;;;;;;;7.75;3.00;;;;;;;-0.83;100.00;90642.75;5073967;28;20474;-68
2022/01/31 02:39:10;;;;;;;11.07;2.85;;;;;;;-0.92;100.00;90632.00;5073891;28;20036;-67
2022/01/31 02:41:43;;;;;;;10.70;2.78;;;;;;;-0.85;100.00;90634.41;5073741;28;20036;-68
2022/01/31 02:44:16;;;;;;;9.13;3.15;;;;;;;-0.86;100.00;90638.03;5073842;28;20074;-67
2022/01/31 02:46:52;;;;;;;14.52;3.35;;;;;;;-0.76;100.00;90639.97;5073644;28;20114;-68
2022/01/31 02:49:22;;;;;;;8.60;2.80;;;;;;;-0.78;98.45;90639.44;5073681;28;20028;-67
2022/01/31 02:52:01;;;;;;;10.48;2.70;;;;;;;-0.78;100.00;90636.81;5073712;28;20047;-67
2022/01/31 02:54:29;;;;;;;11.18;2.70;;;;;;;-0.73;99.30;90639.47;5073741;28;20025;-68
2022/01/31 02:56:54;;;;;;;10.00;2.75;;;;;;;-0.83;98.60;90621.09;5073594;28;20032;-67
2022/01/31 02:59:21;;;;;;;10.00;2.70;;;;;;;-0.93;96.32;90613.97;5073582;28;20029;-67
2022/01/31 03:01:47;;;;;;;4.80;2.55;;;;;;;-0.88;96.59;90626.28;5072544;28;20410;-67
2022/01/31 03:06:49;;;;;;;10.88;2.50;;;;;;;-0.92;95.19;90623.38;5051910;28;20048;-66
2022/01/31 03:09:17;;;;;;;10.27;2.65;;;;;;;-0.86;93.03;90627.59;5053165;28;20582;-65
2022/01/31 03:11:42;;;;;;;14.02;2.83;;;;;;;-0.94;93.08;90628.84;5053206;28;20138;-65
2022/01/31 03:14:09;;;;;;;9.05;2.92;;;;;;;-0.98;94.89;90624.34;5053146;28;20486;-65
2022/01/31 03:16:40;;;;;;;12.77;2.88;;;;;;;-1.00;93.99;90624.59;5052875;28;20064;-64
2022/01/31 03:19:08;;;;;;;9.90;2.70;;;;;;;-0.96;91.98;90623.06;5053028;28;20442;-64
2022/01/31 03:21:33;;;;;;;10.32;2.38;;;;;;;-1.02;92.92;90618.84;5052944;28;20200;-64
2022/01/31 03:23:59;;;;;;;7.40;2.20;;;;;;;-1.10;93.37;90616.69;5053173;28;20111;-64
2022/01/31 03:26:24;;;;;;;7.57;2.35;;;;;;;-1.12;94.28;90607.50;5052810;28;20419;-63
2022/01/31 03:28:52;;;;;;;9.07;3.00;;;;;;;-1.09;93.18;90615.66;5052914;28;20024;-64
2022/01/31 03:31:18;;;;;;;12.80;2.95;;;;;;;-0.98;91.20;90624.34;5052852;28;20083;-64
2022/01/31 03:33:45;;;;;;;7.85;2.22;;;;;;;-0.94;89.39;90618.41;5052784;28;20025;-64
2022/01/31 03:36:11;;;;;;;11.68;2.38;;;;;;;-1.03;89.74;90611.25;5052429;28;20017;-64
2022/01/31 03:38:40;;;;;;;11.93;2.60;;;;;;;-1.05;90.12;90619.34;5052746;28;20043;-65
2022/01/31 03:41:10;;;;;;;13.40;2.30;;;;;;;-1.09;92.48;90618.25;5052932;28;20033;-64
2022/01/31 03:43:36;;;;;;;6.88;2.72;;;;;;;-1.11;92.43;90603.84;5052853;28;20035;-65
2022/01/31 03:46:02;;;;;;;8.50;3.00;;;;;;;-1.05;92.01;90613.31;5052412;28;20033;-65
2022/01/31 03:48:28;;;;;;;7.25;2.47;;;;;;;-1.12;92.52;90612.72;5052452;28;20039;-65
2022/01/31 03:50:58;;;;;;;9.98;2.35;;;;;;;-1.05;91.23;90615.94;5052469;28;20443;-65
2022/01/31 03:53:23;;;;;;;10.80;3.08;;;;;;;-1.07;91.52;90621.41;5052424;28;20029;-65
2022/01/31 03:55:49;;;;;;;5.45;2.50;;;;;;;-1.06;90.56;90624.81;5052429;28;20158;-65
2022/01/31 03:58:15;;;;;;;6.57;2.45;;;;;;;-1.08;90.34;90617.22;5052308;28;20414;-65
2022/01/31 04:00:41;;;;;;;12.32;2.72;;;;;;;-1.04;90.07;90631.34;5046401;28;20060;-64
2022/01/31 04:03:07;;;;;;;8.00;2.80;;;;;;;-0.99;89.99;90620.94;5031749;28;20029;-65
2022/01/31 04:05:32;;;;;;;9.60;2.70;;;;;;;-1.05;90.74;90626.38;5031792;28;20046;-63
2022/01/31 04:07:58;;;;;;;10.90;4.15;;;;;;;-1.12;91.25;90618.72;5031860;28;20060;-64
2022/01/31 04:10:25;;;;;;;9.15;2.88;;;;;;;-1.21;92.63;90625.44;5031815;28;20479;-64
2022/01/31 04:12:51;;;;;;;7.78;4.07;;;;;;;-1.38;94.18;90622.13;5031374;28;20047;-63
2022/01/31 04:15:16;;;;;;;12.48;5.45;;;;;;;-1.36;91.77;90626.06;5031590;28;20483;-65
2022/01/31 04:17:42;;;;;;;10.50;3.10;;;;;;;-1.30;89.96;90621.69;5031761;28;20065;-63
2022/01/31 04:20:08;;;;;;;8.57;2.55;;;;;;;-1.23;87.10;90623.06;5031660;28;20029;-64
2022/01/31 04:22:40;;;;;;;6.32;2.20;;;;;;;-1.16;85.71;90615.03;5031502;28;20454;-64
2022/01/31 04:25:13;;;;;;;9.75;2.33;;;;;;;-1.25;86.47;90621.75;5031421;28;20101;-64
2022/01/31 04:27:45;;;;;;;6.18;2.38;;;;;;;-1.18;84.28;90617.13;5031170;28;20095;-65
2022/01/31 04:30:13;;;;;;;6.70;2.53;;;;;;;-1.17;84.18;90621.28;5031509;28;20026;-65
2022/01/31 04:32:38;;;;;;;7.28;2.75;;;;;;;-1.18;85.00;90630.16;5032410;28;20033;-64
2022/01/31 04:35:05;;;;;;;10.20;2.97;;;;;;;-1.20;83.80;90621.78;5050227;28;20036;-64
2022/01/31 04:37:30;;;;;;;7.60;2.70;;;;;;;-1.04;81.28;90626.13;5033303;28;20051;-64
2022/01/31 04:39:56;;;;;;;4.97;2.17;;;;;;;-1.09;82.40;90628.69;5051288;28;20550;-64
2022/01/31 04:42:24;;;;;;;7.25;2.42;;;;;;;-1.00;80.73;90635.03;5050731;28;20025;-64
2022/01/31 04:44:49;;;;;;;7.95;2.13;;;;;;;-1.01;79.37;90637.91;5051011;28;20028;-64
2022/01/31 04:47:15;;;;;;;9.68;1.95;;;;;;;-1.09;79.62;90633.91;5051571;28;20028;-61
2022/01/31 04:49:40;;;;;;;5.55;2.45;;;;;;;-1.18;79.48;90631.97;5051674;28;20028;-60
2022/01/31 04:52:06;;;;;;;6.32;1.90;;;;;;;-1.22;79.61;90631.69;5051325;28;20033;-61
2022/01/31 04:54:31;;;;;;;10.50;3.30;;;;;;;-1.17;79.06;90625.72;5051059;28;20129;-62
2022/01/31 04:56:57;;;;;;;12.15;2.42;;;;;;;-1.24;80.64;90636.38;5051100;28;20071;-61
2022/01/31 04:59:23;;;;;;;10.75;3.00;;;;;;;-1.31;81.91;90640.97;5051210;28;20021;-61
2022/01/31 05:01:49;;;;;;;9.38;2.70;;;;;;;-1.36;82.05;90633.09;5051209;28;20159;-61
2022/01/31 05:04:14;;;;;;;6.40;2.28;;;;;;;-1.34;83.15;90636.25;5051258;28;20044;-61
2022/01/31 05:06:42;;;;;;;5.60;2.42;;;;;;;-1.41;85.58;90641.66;5050854;28;20061;-61
2022/01/31 05:09:10;;;;;;;10.98;2.28;;;;;;;-1.47;86.06;90631.41;5051052;28;20021;-62
2022/01/31 05:11:36;;;;;;;6.82;2.95;;;;;;;-1.60;87.17;90630.72;5051267;28;20039;-62
2022/01/31 05:14:02;;;;;;;10.35;2.65;;;;;;;-1.73;88.76;90631.13;5050993;28;20044;-62
2022/01/31 05:16:27;;;;;;;5.47;2.30;;;;;;;-1.79;89.87;90616.41;5050871;28;20040;-61
2022/01/31 05:18:53;;;;;;;12.00;3.72;;;;;;;-1.95;91.77;90606.84;5050947;28;20047;-62
2022/01/31 05:21:19;;;;;;;6.78;3.10;;;;;;;-1.79;92.27;90629.47;5050951;28;20460;-61
2022/01/31 05:23:47;;;;;;;8.07;3.22;;;;;;;-1.83;92.52;90628.38;5050787;28;20031;-62
2022/01/31 05:26:13;;;;;;;5.88;3.15;;;;;;;-1.77;93.11;90632.59;5050707;28;20059;-61
2022/01/31 05:28:38;;;;;;;8.82;3.28;;;;;;;-1.67;93.08;90642.38;5050896;28;20446;-61
2022/01/31 05:31:05;;;;;;;11.75;5.03;;;;;;;-1.61;92.15;90639.59;5050863;28;20033;-61
2022/01/31 05:33:31;;;;;;;6.63;2.92;;;;;;;-1.61;90.12;90633.59;5050814;28;20487;-61
2022/01/31 05:35:57;;;;;;;13.32;4.50;;;;;;;-1.59;88.65;90632.31;5050678;28;20037;-61
2022/01/31 05:38:22;;;;;;;12.88;3.60;;;;;;;-1.58;87.80;90636.50;5050716;28;20029;-62
2022/01/31 05:40:48;;;;;;;8.23;3.15;;;;;;;-1.54;87.71;90629.78;5050799;28;20032;-61
2022/01/31 05:43:13;;;;;;;5.95;2.50;;;;;;;-1.49;86.52;90630.84;5050702;28;20025;-62
2022/01/31 05:45:39;;;;;;;10.63;3.28;;;;;;;-1.56;87.38;90628.44;5050580;28;20116;-62
2022/01/31 05:48:05;;;;;;;7.35;2.60;;;;;;;-1.63;86.47;90623.41;5050771;28;20091;-62
2022/01/31 05:50:30;;;;;;;9.43;3.97;;;;;;;-1.59;84.82;90618.47;5050793;28;20108;-62
2022/01/31 05:52:56;;;;;;;12.07;3.78;;;;;;;-1.55;83.49;90622.97;5032769;28;20354;-62
2022/01/31 05:55:21;;;;;;;7.88;2.78;;;;;;;-1.58;83.42;90631.31;5050354;28;20029;-62
2022/01/31 05:57:47;;;;;;;7.30;2.92;;;;;;;-1.53;84.13;90622.75;5050487;28;20028;-62
2022/01/31 06:00:14;;;;;;;8.50;4.05;;;;;;;-1.45;81.99;90618.91;5049528;28;20126;-62
2022/01/31 06:02:39;;;;;;;25.10;8.70;;;;;;;-1.44;81.34;90623.88;5050472;28;20087;-62
2022/01/31 06:05:06;;;;;;;25.20;8.63;;;;;;;-1.58;81.55;90620.88;5050339;28;20044;-62
2022/01/31 06:07:31;;;;;;;18.95;5.50;;;;;;;-1.57;81.82;90630.25;5050369;28;20055;-62
2022/01/31 06:09:57;;;;;;;12.95;4.93;;;;;;;-1.61;80.44;90615.31;5032483;28;20029;-62
2022/01/31 06:12:23;;;;;;;12.80;5.05;;;;;;;-1.44;79.65;90626.47;5050673;28;20546;-62
2022/01/31 06:14:48;;;;;;;10.00;4.05;;;;;;;-1.31;79.18;90626.09;5050219;28;20021;-62
2022/01/31 06:17:14;;;;;;;11.48;3.85;;;;;;;-1.25;79.17;90625.16;5050382;28;20483;-62
2022/01/31 06:19:40;;;;;;;6.57;3.45;;;;;;;-1.24;79.16;90621.50;5050333;28;20036;-62
2022/01/31 06:22:05;;;;;;;9.48;3.30;;;;;;;-1.17;79.53;90623.91;5050319;28;20082;-62
2022/01/31 06:24:31;;;;;;;9.38;3.20;;;;;;;-1.16;80.46;90607.22;5032308;28;20449;-62
2022/01/31 06:26:58;;;;;;;8.73;4.18;;;;;;;-0.35;77.55;90631.41;5050255;28;20451;-62
2022/01/31 06:29:25;;;;;;;15.57;4.63;;;;;;;0.33;74.61;90615.13;5050277;28;20029;-62
2022/01/31 06:31:50;;;;;;;8.65;5.55;;;;;;;0.75;71.30;90615.78;5050195;28;20094;-62
2022/01/31 06:34:18;;;;;;;9.45;5.45;;;;;;;1.51;68.71;90617.78;5032103;28;20029;-62
2022/01/31 06:36:44;;;;;;;12.55;4.70;;;;;;;1.11;66.47;90610.66;5050992;28;20025;-62
2022/01/31 06:39:10;;;;;;;12.15;4.80;;;;;;;0.59;67.32;90635.09;5053680;28;20029;-62
2022/01/31 06:41:35;;;;;;;7.90;4.40;;;;;;;0.49;68.66;90635.06;5053707;28;20059;-62
2022/01/31 06:44:01;;;;;;;9.38;6.18;;;;;;;0.47;68.63;90637.91;5053631;28;20108;-62
2022/01/31 06:46:27;;;;;;;7.57;3.55;;;;;;;0.04;69.35;90646.06;5053673;28;20056;-62
2022/01/31 06:48:52;;;;;;;20.48;12.60;;;;;;;-0.37;70.84;90627.47;5053611;28;20024;-62
2022/01/31 06:51:18;;;;;;;25.85;14.10;;;;;;;0.08;70.03;90619.16;5053682;28;20060;-62
2022/01/31 06:53:48;;;;;;;7.25;3.20;;;;;;;0.18;68.31;90621.06;5035668;28;20037;-62
2022/01/31 06:56:14;;;;;;;14.32;3.60;;;;;;;0.99;66.16;90620.59;5053369;28;20029;-62
2022/01/31 06:58:39;;;;;;;9.05;3.40;;;;;;;0.41;65.01;90620.63;5053692;28;20032;-62
2022/01/31 07:01:05;;;;;;;4.50;2.97;;;;;;;-0.10;66.55;90614.34;5053449;28;20029;-62
2022/01/31 07:03:30;;;;;;;4.10;2.22;;;;;;;-0.43;65.54;90621.44;5053368;28;20108;-62
2022/01/31 07:05:56;;;;;;;10.30;3.67;;;;;;;-0.53;64.99;90618.72;5053047;28;20053;-62
2022/01/31 07:08:22;;;;;;;7.28;2.40;;;;;;;-0.61;65.71;90620.00;5053263;28;20032;-62
2022/01/31 07:10:52;;;;;;;8.32;3.33;;;;;;;-0.29;65.15;90607.94;5053414;28;20069;-62
2022/01/31 07:15:55;;;;;;;7.50;3.20;;;;;;;2.34;59.29;90599.84;5053261;28;20025;-62
2022/01/31 07:18:21;;;;;;;17.23;7.13;;;;;;;5.48;51.72;90594.06;5052925;28;20029;-62
2022/01/31 07:20:52;;;;;;;7.60;3.53;;;;;;;7.05;45.71;90588.00;5052909;28;20094;-61
2022/01/31 07:23:24;;;;;;;9.57;3.78;;;;;;;8.31;43.56;90596.84;5052834;28;20110;-62
2022/01/31 07:25:50;;;;;;;14.65;4.65;;;;;;;8.86;42.50;90573.47;5052953;28;20108;-64
2022/01/31 07:28:16;;;;;;;19.40;10.43;;;;;;;9.93;40.43;90567.72;5052635;28;20032;-61
2022/01/31 07:30:46;;;;;;;29.73;19.75;;;;;;;10.42;39.72;90571.81;5052622;28;20055;-61
2022/01/31 07:33:13;;;;;;;15.57;6.70;;;;;;;10.84;38.32;90572.00;5052483;28;20032;-61
2022/01/31 07:35:40;;;;;;;24.98;10.80;;;;;;;10.20;39.12;90578.03;5052537;28;20024;-62
2022/01/31 07:38:06;;;;;;;20.00;8.45;;;;;;;9.99;39.24;90569.16;5052727;28;20057;-62
2022/01/31 07:40:32;;;;;;;10.82;4.88;;;;;;;8.82;40.92;90574.38;5052668;28;20079;-61
2022/01/31 07:42:57;;;;;;;13.70;6.00;;;;;;;10.12;39.73;90567.44;5052586;28;20047;-62
2022/01/31 07:45:23;;;;;;;9.98;4.00;;;;;;;10.07;40.05;90564.91;5052406;28;20021;-62
2022/01/31 07:47:48;;;;;;;9.32;3.60;;;;;;;8.58;42.67;90574.75;5052020;28;20120;-62
2022/01/31 07:50:14;;;;;;;6.55;3.45;;;;;;;7.51;44.36;90546.25;5052578;28;20440;-62
2022/01/31 07:52:41;;;;;;;9.77;4.40;;;;;;;9.17;42.76;90546.09;5052335;28;20051;-62
2022/01/31 07:55:08;;;;;;;9.55;3.67;;;;;;;9.45;41.31;90547.38;5052208;28;20021;-62
2022/01/31 07:57:34;;;;;;;7.32;4.00;;;;;;;10.43;39.19;90546.00;5034416;28;20052;-62
2022/01/31 08:00:02;;;;;;;5.75;2.65;;;;;;;8.68;40.64;90553.28;5052226;28;20032;-62
2022/01/31 08:02:27;;;;;;;8.10;3.78;;;;;;;8.55;40.03;90544.31;5052090;28;20036;-62
2022/01/31 08:04:54;;;;;;;7.75;3.40;;;;;;;9.99;37.96;90541.78;5051827;28;20132;-61
2022/01/31 08:07:21;;;;;;;15.65;6.68;;;;;;;10.95;37.65;90549.25;5052103;28;20518;-61
2022/01/31 08:09:48;;;;;;;7.35;5.18;;;;;;;12.27;35.94;90543.56;5052079;28;20426;-62
2022/01/31 08:12:13;;;;;;;9.40;5.38;;;;;;;10.69;36.41;90532.59;5052016;28;20021;-62
2022/01/31 08:14:39;;;;;;;10.10;4.88;;;;;;;10.08;37.23;90537.25;5034027;28;20035;-63
2022/01/31 08:17:04;;;;;;;12.32;5.80;;;;;;;10.79;37.63;90542.91;5051873;28;20031;-63
2022/01/31 08:19:30;;;;;;;18.45;12.10;;;;;;;10.71;36.45;90543.69;5050838;28;20495;-62
2022/01/31 08:21:56;;;;;;;10.52;4.75;;;;;;;10.10;37.59;90543.03;5051876;28;20035;-62
2022/01/31 08:24:21;;;;;;;4.97;2.90;;;;;;;10.82;36.18;90531.63;5051690;28;20054;-61
2022/01/31 08:26:47;;;;;;;6.53;3.17;;;;;;;10.72;35.97;90543.38;5051592;28;20039;-61
2022/01/31 08:29:25;;;;;;;12.32;6.25;;;;;;;10.37;36.89;90537.38;5051759;28;20104;-61
2022/01/31 08:31:53;;;;;;;10.82;6.63;;;;;;;11.06;37.01;90526.50;5051669;28;20025;-62
2022/01/31 08:35:47;;;;;;;16.08;6.00;;;;;;;10.88;36.31;90519.69;5051514;28;20047;-62
2022/01/31 08:37:14;;;;;;;21.55;9.23;;;;;;;10.22;36.97;90524.59;5051458;28;20494;-61
2022/01/31 08:39:40;;;;;;;11.05;4.93;;;;;;;9.25;37.98;90524.09;5051520;28;20508;-63
2022/01/31 08:42:06;;;;;;;11.82;5.68;;;;;;;9.34;38.00;90529.44;5051703;28;20020;-61
2022/01/31 08:44:32;;;;;;;15.23;7.55;;;;;;;10.03;36.82;90532.88;5051274;28;20024;-62
2022/01/31 08:46:58;;;;;;;46.65;19.67;;;;;;;10.70;35.84;90531.50;5051418;28;20027;-62
2022/01/31 08:49:23;;;;;;;50.17;21.50;;;;;;;10.98;35.22;90532.66;5051367;28;20037;-62
2022/01/31 08:51:50;;;;;;;19.13;10.57;;;;;;;11.40;35.11;90524.75;5051383;28;20021;-62
2022/01/31 08:54:15;;;;;;;9.73;4.90;;;;;;;11.77;34.64;90514.31;5051157;28;20051;-62
2022/01/31 08:56:44;;;;;;;11.75;4.75;;;;;;;11.62;34.36;90510.34;5051143;28;20478;-62
2022/01/31 08:59:14;;;;;;;11.73;6.20;;;;;;;10.31;35.55;90509.41;5050436;28;20037;-62
2022/01/31 09:01:40;;;;;;;13.27;6.82;;;;;;;9.69;36.08;90496.50;5051079;28;20087;-61
2022/01/31 09:04:09;;;;;;;15.77;6.38;;;;;;;10.50;35.50;90499.19;5051100;28;20036;-61
2022/01/31 09:06:36;;;;;;;10.60;4.85;;;;;;;10.24;35.80;90505.66;5050702;28;20090;-61
2022/01/31 09:09:08;;;;;;;22.55;14.73;;;;;;;11.57;35.10;90511.34;5050984;28;20044;-62
2022/01/31 09:11:36;;;;;;;20.33;13.23;;;;;;;9.64;35.84;90503.84;5051085;28;20036;-62
2022/01/31 09:14:02;;;;;;;11.88;9.25;;;;;;;10.92;36.43;90507.31;5050656;28;20029;-62
2022/01/31 09:16:27;;;;;;;10.57;4.85;;;;;;;11.00;34.65;90501.16;5050744;28;20106;-61
2022/01/31 09:18:53;;;;;;;5.93;3.42;;;;;;;9.83;37.77;90504.28;5033028;28;20025;-60
2022/01/31 09:21:18;;;;;;;7.53;3.55;;;;;;;10.39;35.88;90482.00;5050842;28;20043;-61
2022/01/31 09:23:45;;;;;;;7.22;3.15;;;;;;;10.21;36.91;90469.88;5050997;28;20477;-61
2022/01/31 09:26:10;;;;;;;12.77;6.13;;;;;;;10.23;37.41;90465.00;5050876;28;20036;-62
2022/01/31 09:28:36;;;;;;;10.52;6.00;;;;;;;10.44;35.01;90476.53;5050829;28;20036;-62
2022/01/31 09:31:03;;;;;;;16.30;7.13;;;;;;;10.82;36.09;90464.31;5050794;28;20107;-62
2022/01/31 09:33:28;;;;;;;6.30;4.10;;;;;;;10.61;36.00;90478.34;5050790;28;20037;-62
2022/01/31 09:35:54;;;;;;;7.28;3.47;;;;;;;12.48;33.31;90482.19;5050523;28;20036;-62
2022/01/31 09:38:23;;;;;;;13.57;4.60;;;;;;;11.21;35.24;90471.94;5050926;28;20131;-62
2022/01/31 09:40:50;;;;;;;12.65;7.97;;;;;;;10.95;36.05;90465.97;5050821;28;20080;-62
2022/01/31 09:48:38;;;;;;;8.13;4.00;;;;;;;12.80;33.82;90451.22;5050614;28;20104;-63
2022/01/31 09:51:15;;;;;;;10.43;5.13;;;;;;;12.89;33.26;90449.19;5050576;28;20025;-62
2022/01/31 09:53:48;;;;;;;9.05;5.13;;;;;;;10.86;35.93;90446.59;5050445;28;20032;-62
2022/01/31 09:56:18;;;;;;;9.85;5.57;;;;;;;11.22;34.66;90432.78;5050517;28;20406;-62
2022/01/31 09:58:44;;;;;;;6.90;4.40;;;;;;;10.15;35.69;90421.38;5050515;28;20033;-62
2022/01/31 10:01:24;;;;;;;9.93;4.47;;;;;;;10.40;35.49;90409.13;5032591;28;20421;-62
2022/01/31 10:03:54;;;;;;;7.03;2.38;;;;;;;11.93;33.32;90419.38;5050412;28;20091;-62
2022/01/31 10:06:31;;;;;;;3.35;2.70;;;;;;;12.83;32.78;90421.97;5050221;28;20072;-62
2022/01/31 10:09:15;;;;;;;5.57;3.83;;;;;;;10.77;34.83;90415.53;5050454;28;20025;-62
2022/01/31 10:12:08;;;;;;;10.48;4.70;;;;;;;10.06;35.58;90401.25;5052971;28;20025;-62
2022/01/31 10:17:31;;;;;;;10.27;5.28;;;;;;;11.03;34.99;90372.75;5054476;28;20036;-63
2022/01/31 10:20:00;;;;;;;12.13;5.30;;;;;;;10.67;34.88;90368.00;5054038;28;20052;-62
2022/01/31 10:22:32;;;;;;;9.23;6.43;;;;;;;10.37;35.74;90353.16;5054190;28;20040;-61
2022/01/31 10:25:04;;;;;;;12.15;8.10;;;;;;;9.92;36.45;90356.28;5053902;28;20036;-62
2022/01/31 10:27:34;;;;;;;17.08;8.75;;;;;;;9.69;38.12;90345.09;5053933;28;20569;-63
2022/01/31 10:30:24;;;;;;;19.30;9.88;;;;;;;10.35;37.07;90332.19;5053837;28;20036;-62
2022/01/31 10:32:51;;;;;;;16.60;7.95;;;;;;;12.17;35.84;90344.78;5053842;28;20029;-62
2022/01/31 10:35:20;;;;;;;11.93;6.10;;;;;;;9.81;36.25;90339.91;5053630;28;20025;-63
2022/01/31 10:37:47;;;;;;;15.80;4.72;;;;;;;7.95;39.44;90335.50;5053777;28;20486;-63
2022/01/31 10:43:27;;;;;;;6.95;2.92;;;;;;;6.56;41.16;90333.91;5053964;28;20129;-62
2022/01/31 10:53:46;;;;;;;10.45;5.22;;;;;;;8.84;37.85;90317.59;5053673;28;20054;-65
2022/01/31 10:56:12;;;;;;;20.23;11.30;;;;;;;9.50;37.79;90315.47;5053387;28;20470;-66
2022/01/31 10:58:59;;;;;;;8.98;4.63;;;;;;;9.64;37.85;90309.97;5053367;28;20545;-65
2022/01/31 11:01:26;;;;;;;5.25;2.90;;;;;;;8.49;38.16;90299.00;5053438;28;20037;-65
2022/01/31 11:03:53;;;;;;;83.88;46.47;;;;;;;9.23;39.88;90287.44;5053285;28;20104;-65
2022/01/31 11:06:20;;;;;;;12.63;5.82;;;;;;;8.90;38.91;90281.88;5052985;28;20514;-64
2022/01/31 11:08:46;;;;;;;14.60;5.03;;;;;;;8.02;40.29;90282.06;5053261;28;20525;-64
2022/01/31 11:11:12;;;;;;;8.43;2.65;;;;;;;8.29;37.94;90275.72;5053444;28;20055;-62
2022/01/31 11:13:38;;;;;;;8.43;2.47;;;;;;;9.45;37.60;90267.84;5053134;28;20703;-62
2022/01/31 11:16:06;;;;;;;8.07;3.42;;;;;;;9.93;36.81;90256.88;5053089;28;20041;-63
2022/01/31 11:18:33;;;;;;;7.85;4.03;;;;;;;10.56;36.71;90252.44;5053068;28;20529;-63
2022/01/31 11:21:03;;;;;;;8.02;2.65;;;;;;;10.47;35.98;90247.19;5035026;28;20368;-63
2022/01/31 11:23:29;;;;;;;8.30;4.22;;;;;;;9.70;37.67;90243.09;5052163;28;20049;-64
2022/01/31 11:26:01;;;;;;;14.80;10.45;;;;;;;10.29;37.58;90232.47;5053013;28;20048;-63
2022/01/31 11:28:31;;;;;;;6.72;4.18;;;;;;;8.43;40.21;90244.59;5034950;28;20473;-63
2022/01/31 11:30:57;;;;;;;7.53;2.97;;;;;;;9.47;36.80;90244.44;5052732;28;20049;-63
2022/01/31 11:33:23;;;;;;;9.18;3.10;;;;;;;9.39;37.09;90247.88;5052600;28;20099;-64
2022/01/31 11:35:50;;;;;;;5.25;2.88;;;;;;;8.87;35.99;90237.41;5052733;28;20521;-64
2022/01/31 11:38:18;;;;;;;6.85;3.03;;;;;;;9.99;37.18;90241.53;5052589;28;20047;-63
2022/01/31 11:40:44;;;;;;;3.25;2.42;;;;;;;9.72;35.08;90235.56;5052690;28;20045;-63
2022/01/31 11:43:11;;;;;;;7.43;4.10;;;;;;;9.87;36.97;90236.91;5052575;28;20506;-63
2022/01/31 11:45:40;;;;;;;4.05;2.50;;;;;;;10.19;36.44;90230.16;5052398;28;20044;-63
2022/01/31 11:48:29;;;;;;;5.72;2.40;;;;;;;10.37;36.38;90226.31;5052169;28;20081;-63
2022/01/31 11:51:00;;;;;;;5.30;2.75;;;;;;;10.54;35.75;90224.63;5052462;28;20065;-63
2022/01/31 11:53:43;;;;;;;5.05;3.22;;;;;;;9.58;36.75;90224.38;5052295;28;20528;-63
2022/01/31 11:56:17;;;;;;;7.30;3.13;;;;;;;9.18;36.24;90216.75;5052276;28;20092;-63
2022/01/31 11:58:46;;;;;;;8.77;3.58;;;;;;;9.63;36.94;90210.94;5052404;28;20040;-63